createdAt,value
2022-10-29T00:04:44.125Z,296.20
2022-10-29T00:14:48.914Z,404.50
2022-10-29T00:24:52.251Z,325.27
2022-10-29T00:34:56.877Z,362.73
2022-10-29T00:45:00.148Z,387.30
2022-10-29T00:55:08.920Z,277.90
2022-10-29T01:05:14.872Z,250.17
2022-10-29T01:15:28.034Z,270.70
2022-10-29T01:25:52.985Z,351.60
2022-10-29T01:36:06.839Z,452.50
2022-10-29T01:46:15.619Z,330.37
2022-10-29T01:56:20.285Z,360.20
2022-10-29T02:06:37.834Z,256.77
2022-10-29T02:16:43.177Z,235.43
2022-10-29T02:26:46.484Z,227.07
2022-10-29T02:36:51.109Z,229.63
2022-10-29T02:46:54.517Z,226.17
2022-10-29T02:56:59.205Z,234.23
2022-10-29T03:07:03.677Z,237.30
2022-10-29T03:17:08.267Z,228.60
2022-10-29T03:27:11.587Z,222.93
2022-10-29T03:37:16.328Z,222.60
2022-10-29T03:47:19.593Z,223.47
2022-10-29T03:57:24.275Z,218.87
2022-10-29T04:07:27.521Z,228.63
2022-10-29T04:17:32.170Z,224.43
2022-10-29T04:38:00.094Z,223.30
2022-10-29T04:48:04.324Z,220.83
2022-10-29T04:58:14.760Z,217.97
2022-10-29T05:08:18.073Z,218.47
2022-10-29T05:18:22.801Z,218.57
2022-10-29T05:28:26.448Z,218.43
2022-10-29T05:38:31.049Z,221.37
2022-10-29T05:48:34.349Z,218.07
2022-10-29T05:58:38.978Z,218.40
2022-10-29T06:08:42.260Z,220.30
2022-10-29T06:18:46.909Z,210.13
2022-10-29T06:28:50.129Z,207.47
2022-10-29T06:38:54.725Z,207.70
2022-10-29T06:48:58.169Z,209.23
2022-10-29T06:59:02.807Z,209.43
2022-10-29T07:09:06.038Z,208.87
2022-10-29T07:19:10.788Z,203.97
2022-10-29T07:29:19.591Z,205.77
2022-10-29T07:39:24.281Z,202.03
2022-10-29T07:49:27.604Z,200.82
2022-10-29T07:59:32.214Z,201.90
2022-10-29T08:09:35.521Z,202.55
2022-10-29T08:19:40.115Z,200.57
2022-10-29T08:29:43.336Z,197.30
2022-10-29T08:39:47.937Z,199.48
2022-10-29T08:50:03.264Z,197.10
2022-10-29T09:00:15.482Z,198.30
2022-10-29T09:10:29.315Z,197.23
2022-10-29T09:20:47.233Z,197.75
2022-10-29T09:31:07.430Z,193.35
2022-10-29T09:41:13.298Z,189.35
2022-10-29T09:51:29.451Z,188.52
2022-10-29T10:01:34.419Z,187.85
2022-10-29T10:11:41.441Z,188.68
2022-10-29T10:21:59.435Z,183.32
2022-10-29T10:32:16.516Z,185.88
2022-10-29T10:42:24.320Z,184.45
2022-10-29T10:52:31.803Z,187.05
2022-10-29T11:02:51.192Z,188.10
2022-10-29T11:12:58.043Z,183.80
2022-10-29T11:23:22.009Z,187.75
2022-10-29T11:33:36.140Z,183.48
2022-10-29T11:43:40.877Z,184.82
2022-10-29T11:54:01.703Z,178.23
2022-10-29T12:04:24.412Z,186.10
2022-10-29T12:14:34.660Z,186.18
2022-10-29T12:25:10.660Z,184.95
2022-10-29T12:35:22.729Z,187.52
2022-10-29T12:45:48.078Z,182.75
2022-10-29T12:56:00.684Z,175.80
2022-10-29T13:06:57.176Z,183.40
2022-10-29T13:17:02.484Z,180.50
2022-10-29T13:27:35.989Z,177.45
2022-10-29T13:38:16.048Z,179.10
2022-10-29T13:48:29.979Z,184.50
2022-10-29T13:58:37.205Z,184.05
2022-10-29T14:08:49.017Z,191.82
2022-10-29T14:18:54.116Z,189.55
2022-10-29T14:29:15.352Z,194.93
2022-10-29T14:39:32.439Z,198.57
2022-10-29T14:49:44.691Z,202.65
2022-10-29T14:59:51.545Z,201.73
2022-10-29T15:10:21.145Z,207.75
2022-10-29T15:20:27.833Z,205.32
2022-10-29T15:30:36.201Z,202.50
2022-10-29T15:40:39.821Z,201.63
2022-10-29T15:50:46.316Z,201.53
2022-10-29T16:00:49.717Z,208.97
2022-10-29T16:10:55.096Z,213.00
2022-10-29T16:21:02.477Z,212.93
2022-10-29T16:31:20.533Z,208.53
2022-10-29T16:41:23.944Z,209.53
2022-10-29T16:51:28.567Z,213.77
2022-10-29T17:01:31.787Z,214.40
2022-10-29T17:11:36.428Z,216.73
2022-10-29T17:21:39.712Z,219.67
2022-10-29T17:31:44.506Z,215.63
2022-10-29T17:41:47.833Z,216.03
2022-10-29T17:51:52.455Z,218.73
2022-10-29T18:01:55.883Z,220.87
2022-10-29T18:12:00.602Z,214.97
2022-10-29T18:22:04.155Z,215.40
2022-10-29T18:32:08.827Z,224.20
2022-10-29T18:42:12.141Z,229.17
2022-10-29T18:52:16.807Z,227.83
2022-10-29T19:02:20.564Z,224.30
2022-10-29T19:12:25.445Z,218.63
2022-10-29T19:22:28.757Z,232.80
2022-10-29T19:32:33.816Z,234.10
2022-10-29T19:42:37.254Z,230.10
2022-10-29T19:52:41.902Z,233.53
2022-10-29T20:02:45.621Z,226.03
2022-10-29T20:12:50.239Z,241.37
2022-10-29T20:22:54.046Z,232.63
2022-10-29T20:32:59.301Z,220.30
2022-10-29T20:43:02.876Z,229.70
2022-10-29T21:03:17.495Z,236.67
2022-10-29T21:13:22.189Z,232.37
2022-10-29T21:23:25.585Z,230.57
2022-10-29T21:33:30.502Z,223.67
2022-10-29T21:43:34.031Z,220.13
2022-10-29T21:53:38.923Z,220.27
2022-10-29T22:03:45.068Z,232.30
2022-10-29T22:13:49.791Z,221.07
2022-10-29T22:23:55.342Z,220.67
2022-10-29T22:34:00.109Z,222.40
2022-10-29T22:44:04.061Z,217.70
2022-10-29T22:54:08.772Z,216.87
2022-10-29T23:04:12.118Z,216.73
2022-10-29T23:14:16.815Z,222.97
2022-10-29T23:24:20.059Z,217.17
2022-10-29T23:34:24.630Z,217.67
2022-10-29T23:44:27.954Z,214.37
2022-10-29T23:54:32.581Z,218.33
